Time,TemperatureF,DewpointF,PressureIn,WindDirection,WindDirectionDegrees,WindSpeedMPH,WindSpeedGustMPH,Humidity,HourlyPrecipIn,Conditions,Clouds,dailyrainin,SoftwareType,DateUTC
2013-04-22 00:01:00,50.0,42.0,30.22,North,0,0.0,0.0,75,0.00,,,0.00,,2013-04-22 07:01:00,
2013-04-22 00:11:00,50.0,42.0,30.22,North,0,0.0,0.0,75,0.00,,,0.00,,2013-04-22 07:11:00,
2013-04-22 00:21:00,50.0,42.0,30.22,North,358,0.0,0.0,75,0.00,,,0.00,,2013-04-22 07:21:00,
2013-04-22 00:32:00,50.0,42.0,30.22,North,358,0.0,0.0,75,0.00,,,0.00,,2013-04-22 07:32:00,
2013-04-22 00:42:00,50.0,42.0,30.22,North,358,0.0,0.0,75,0.00,,,0.00,,2013-04-22 07:42:00,
2013-04-22 00:52:00,49.0,42.0,30.23,North,8,0.0,0.0,77,0.00,,,0.00,,2013-04-22 07:52:00,
2013-04-22 01:01:00,49.0,42.0,30.23,North,8,0.0,0.0,77,0.00,,,0.00,,2013-04-22 08:01:00,
2013-04-22 01:11:00,49.0,42.0,30.23,North,8,0.0,0.0,77,0.00,,,0.00,,2013-04-22 08:11:00,
2013-04-22 01:21:00,48.0,42.0,30.23,NNW,342,0.0,0.0,79,0.00,,,0.00,,2013-04-22 08:21:00,
2013-04-22 01:31:00,48.0,42.0,30.23,NNW,342,0.0,0.0,79,0.00,,,0.00,,2013-04-22 08:31:00,
2013-04-22 01:42:00,48.0,42.0,30.23,NNW,342,0.0,0.0,79,0.00,,,0.00,,2013-04-22 08:42:00,
2013-04-22 01:52:00,48.0,42.0,30.23,NNW,342,0.0,0.0,79,0.00,,,0.00,,2013-04-22 08:52:00,
2013-04-22 02:01:00,47.0,40.0,30.24,NNE,13,0.0,0.0,76,0.00,,,0.00,,2013-04-22 09:01:00,
2013-04-22 02:11:00,47.0,40.0,30.24,NNE,13,0.0,0.0,76,0.00,,,0.00,,2013-04-22 09:11:00,
2013-04-22 02:21:00,46.0,39.0,30.24,North,358,0.0,0.0,77,0.00,,,0.00,,2013-04-22 09:21:00,
2013-04-22 02:32:00,46.0,39.0,30.24,North,358,0.0,0.0,77,0.00,,,0.00,,2013-04-22 09:32:00,
2013-04-22 02:42:00,46.0,39.0,30.24,North,358,0.0,0.0,77,0.00,,,0.00,,2013-04-22 09:42:00,
2013-04-22 02:52:00,45.0,39.0,30.24,NE,56,0.0,0.0,79,0.00,,,0.00,,2013-04-22 09:52:00,
2013-04-22 03:03:00,45.0,39.0,30.24,NE,56,0.0,0.0,79,0.00,,,0.00,,2013-04-22 10:03:00,
2013-04-22 03:12:00,45.0,39.0,30.24,NE,56,0.0,0.0,79,0.00,,,0.00,,2013-04-22 10:12:00,
2013-04-22 03:22:00,44.0,38.0,30.24,NNE,18,0.0,0.0,80,0.00,,,0.00,,2013-04-22 10:22:00,
2013-04-22 03:32:00,44.0,39.0,30.24,NE,42,0.0,0.0,81,0.00,,,0.00,,2013-04-22 10:32:00,
2013-04-22 03:42:00,44.0,39.0,30.24,NE,42,0.0,0.0,81,0.00,,,0.00,,2013-04-22 10:42:00,
2013-04-22 03:52:00,43.0,38.0,30.24,NNE,25,0.0,0.0,82,0.00,,,0.00,,2013-04-22 10:52:00,
2013-04-22 04:02:00,43.0,38.0,30.24,North,3,0.0,0.0,82,0.00,,,0.00,,2013-04-22 11:02:00,
2013-04-22 04:12:00,43.0,38.0,30.24,North,3,0.0,0.0,82,0.00,,,0.00,,2013-04-22 11:12:00,
2013-04-22 04:22:00,43.0,38.0,30.24,North,3,0.0,0.0,82,0.00,,,0.00,,2013-04-22 11:22:00,
2013-04-22 04:32:00,43.0,38.0,30.24,North,4,0.0,0.0,83,0.00,,,0.00,,2013-04-22 11:32:00,
2013-04-22 04:40:00,42.0,38.0,30.25,NE,41,0.0,0.0,84,0.00,,,0.00,,2013-04-22 11:40:00,
2013-04-22 04:42:00,43.0,38.0,30.24,North,4,0.0,0.0,83,0.00,,,0.00,,2013-04-22 11:42:00,
2013-04-22 04:52:00,42.0,37.0,30.24,NE,44,0.0,0.0,83,0.00,,,0.00,,2013-04-22 11:52:00,
2013-04-22 05:01:00,42.0,38.0,30.25,NE,41,0.0,0.0,84,0.00,,,0.00,,2013-04-22 12:01:00,
2013-04-22 05:12:00,42.0,38.0,30.25,NE,41,0.0,0.0,84,0.00,,,0.00,,2013-04-22 12:12:00,
2013-04-22 05:21:00,42.0,38.0,30.25,NE,41,0.0,0.0,84,0.00,,,0.00,,2013-04-22 12:21:00,
2013-04-22 05:31:00,42.0,38.0,30.25,NE,41,0.0,0.0,84,0.00,,,0.00,,2013-04-22 12:31:00,
2013-04-22 05:52:00,43.0,38.0,30.26,NE,53,0.0,0.0,84,0.00,,,0.00,,2013-04-22 12:52:00,
2013-04-22 06:01:00,43.0,38.0,30.26,NE,53,0.0,0.0,84,0.00,,,0.00,,2013-04-22 13:01:00,
2013-04-22 06:11:00,43.0,38.0,30.26,NE,53,0.0,0.0,84,0.00,,,0.00,,2013-04-22 13:11:00,
2013-04-22 06:22:00,40.0,36.0,30.26,East,94,0.0,0.0,85,0.00,,,0.00,,2013-04-22 13:22:00,
2013-04-22 06:31:00,39.0,35.0,30.26,East,94,0.0,0.0,86,0.00,,,0.00,,2013-04-22 13:31:00,
2013-04-22 06:42:00,39.0,35.0,30.26,East,94,0.0,0.0,86,0.00,,,0.00,,2013-04-22 13:42:00,
2013-04-22 06:52:00,37.0,34.0,30.27,East,94,0.0,0.0,87,0.00,,,0.00,,2013-04-22 13:52:00,
2013-04-22 07:01:00,37.0,34.0,30.27,East,94,0.0,0.0,88,0.00,,,0.00,,2013-04-22 14:01:00,
2013-04-22 07:11:00,37.0,34.0,30.27,East,94,0.0,0.0,88,0.00,,,0.00,,2013-04-22 14:11:00,
2013-04-22 07:21:00,37.0,34.0,30.27,East,94,0.0,0.0,88,0.00,,,0.00,,2013-04-22 14:21:00,
2013-04-22 07:33:00,38.0,35.0,30.27,East,94,0.0,0.0,89,0.00,,,0.00,,2013-04-22 14:33:00,
2013-04-22 07:42:00,38.0,35.0,30.27,East,94,0.0,0.0,89,0.00,,,0.00,,2013-04-22 14:42:00,
2013-04-22 07:52:00,40.0,37.0,30.29,NNE,27,0.0,0.0,90,0.00,,,0.00,,2013-04-22 14:52:00,
2013-04-22 08:01:00,42.0,39.0,30.29,North,352,0.0,0.0,89,0.00,,,0.00,,2013-04-22 15:01:00,
2013-04-22 08:11:00,42.0,39.0,30.29,North,352,0.0,0.0,89,0.00,,,0.00,,2013-04-22 15:11:00,
2013-04-22 08:22:00,43.0,40.0,30.29,North,354,0.0,0.0,88,0.00,,,0.00,,2013-04-22 15:22:00,
2013-04-22 08:33:00,44.0,40.0,30.30,NE,50,0.0,0.0,85,0.00,,,0.00,,2013-04-22 15:33:00,
2013-04-22 08:42:00,44.0,40.0,30.30,NE,50,0.0,0.0,85,0.00,,,0.00,,2013-04-22 15:42:00,
2013-04-22 08:53:00,45.0,40.0,30.31,North,358,0.0,0.0,83,0.00,,,0.00,,2013-04-22 15:53:00,
2013-04-22 09:02:00,45.0,40.0,30.31,North,358,0.0,0.0,83,0.00,,,0.00,,2013-04-22 16:02:00,
2013-04-22 09:12:00,45.0,40.0,30.31,North,358,0.0,0.0,83,0.00,,,0.00,,2013-04-22 16:12:00,
2013-04-22 09:23:00,45.0,40.0,30.31,North,0,0.0,0.0,81,0.00,,,0.00,,2013-04-22 16:23:00,
2013-04-22 09:32:00,45.0,40.0,30.31,North,0,0.0,0.0,81,0.00,,,0.00,,2013-04-22 16:32:00,
2013-04-22 09:42:00,45.0,40.0,30.31,North,0,0.0,0.0,81,0.00,,,0.00,,2013-04-22 16:42:00,
2013-04-22 09:52:00,45.0,40.0,30.31,North,0,0.0,0.0,81,0.00,,,0.00,,2013-04-22 16:52:00,
2013-04-22 10:02:00,47.0,41.0,30.30,NNW,335,0.0,0.0,80,0.00,,,0.00,,2013-04-22 17:02:00,
2013-04-22 10:12:00,47.0,41.0,30.30,NNW,335,0.0,0.0,80,0.00,,,0.00,,2013-04-22 17:12:00,
2013-04-22 10:22:00,49.0,42.0,30.31,North,11,0.0,0.0,76,0.00,,,0.00,,2013-04-22 17:22:00,
2013-04-22 10:31:00,49.0,42.0,30.31,North,11,0.0,0.0,76,0.00,,,0.00,,2013-04-22 17:31:00,
2013-04-22 10:42:00,49.0,42.0,30.31,North,11,0.0,0.0,76,0.00,,,0.00,,2013-04-22 17:42:00,
2013-04-22 10:52:00,51.0,42.0,30.31,North,0,0.0,0.0,70,0.00,,,0.00,,2013-04-22 17:52:00,
2013-04-22 11:01:00,51.0,42.0,30.31,North,0,0.0,0.0,70,0.00,,,0.00,,2013-04-22 18:01:00,
2013-04-22 11:12:00,51.0,42.0,30.31,North,0,0.0,0.0,70,0.00,,,0.00,,2013-04-22 18:12:00,
2013-04-22 11:21:00,53.0,42.0,30.31,NNE,15,0.0,0.0,67,0.00,,,0.00,,2013-04-22 18:21:00,
2013-04-22 11:31:00,54.0,42.0,30.31,North,354,0.0,0.0,63,0.00,,,0.00,,2013-04-22 18:31:00,
2013-04-22 11:42:00,54.0,42.0,30.31,North,354,0.0,0.0,63,0.00,,,0.00,,2013-04-22 18:42:00,
2013-04-22 11:52:00,56.0,41.0,30.31,North,358,0.0,0.0,57,0.00,,,0.00,,2013-04-22 18:52:00,
2013-04-22 12:01:00,56.0,41.0,30.31,North,358,0.0,0.0,57,0.00,,,0.00,,2013-04-22 19:01:00,
2013-04-22 12:11:00,56.0,41.0,30.31,North,358,0.0,0.0,57,0.00,,,0.00,,2013-04-22 19:11:00,
2013-04-22 12:21:00,58.0,41.0,30.30,North,354,0.0,0.0,53,0.00,,,0.00,,2013-04-22 19:21:00,
2013-04-22 12:32:00,58.0,40.0,30.30,North,358,0.0,0.0,52,0.00,,,0.00,,2013-04-22 19:32:00,
2013-04-22 12:42:00,58.0,40.0,30.30,North,358,0.0,0.0,52,0.00,,,0.00,,2013-04-22 19:42:00,
2013-04-22 12:52:00,59.0,39.0,30.29,NNE,14,0.0,0.0,48,0.00,,,0.00,,2013-04-22 19:52:00,
2013-04-22 13:01:00,59.0,39.0,30.29,NNE,14,0.0,0.0,48,0.00,,,0.00,,2013-04-22 20:01:00,
2013-04-22 13:11:00,59.0,39.0,30.29,NNE,14,0.0,0.0,48,0.00,,,0.00,,2013-04-22 20:11:00,
2013-04-22 13:22:00,61.0,39.0,30.28,North,0,0.0,0.0,44,0.00,,,0.00,,2013-04-22 20:22:00,
2013-04-22 13:31:00,61.0,38.0,30.28,NNE,18,0.0,0.0,43,0.00,,,0.00,,2013-04-22 20:31:00,
2013-04-22 13:42:00,61.0,38.0,30.28,NNE,18,0.0,0.0,43,0.00,,,0.00,,2013-04-22 20:42:00,
2013-04-22 13:52:00,62.0,39.0,30.27,North,0,0.0,0.0,42,0.00,,,0.00,,2013-04-22 20:52:00,
2013-04-22 14:01:00,62.0,38.0,30.27,NE,37,0.0,0.0,41,0.00,,,0.00,,2013-04-22 21:01:00,
2013-04-22 14:11:00,62.0,38.0,30.27,NE,37,0.0,0.0,41,0.00,,,0.00,,2013-04-22 21:11:00,
2013-04-22 14:21:00,62.0,38.0,30.27,NE,37,0.0,0.0,41,0.00,,,0.00,,2013-04-22 21:21:00,
2013-04-22 14:32:00,63.0,38.0,30.26,North,0,0.0,0.0,39,0.00,,,0.00,,2013-04-22 21:32:00,
2013-04-22 14:42:00,63.0,38.0,30.26,North,0,0.0,0.0,39,0.00,,,0.00,,2013-04-22 21:42:00,
2013-04-22 14:53:00,64.0,36.0,30.26,North,4,0.0,0.0,35,0.00,,,0.00,,2013-04-22 21:53:00,
2013-04-22 15:02:00,63.0,36.0,30.26,NNW,339,0.0,0.0,36,0.00,,,0.00,,2013-04-22 22:02:00,
2013-04-22 15:12:00,63.0,36.0,30.26,NNW,339,0.0,0.0,36,0.00,,,0.00,,2013-04-22 22:12:00,
2013-04-22 15:22:00,66.0,32.0,30.24,North,0,0.0,0.0,28,0.00,,,0.00,,2013-04-22 22:22:00,
2013-04-22 15:32:00,66.0,32.0,30.24,North,0,0.0,0.0,28,0.00,,,0.00,,2013-04-22 22:32:00,
2013-04-22 15:42:00,66.0,32.0,30.24,North,0,0.0,0.0,28,0.00,,,0.00,,2013-04-22 22:42:00,
2013-04-22 15:52:00,66.0,31.0,30.23,NNW,338,0.0,0.0,27,0.00,,,0.00,,2013-04-22 22:52:00,
2013-04-22 16:02:00,66.0,32.0,30.23,NNW,345,0.0,0.0,28,0.00,,,0.00,,2013-04-22 23:02:00,
2013-04-22 16:10:00,66.0,30.0,30.23,NNW,328,0.0,0.0,26,0.00,,,0.00,,2013-04-22 23:10:00,
2013-04-22 16:11:00,66.0,32.0,30.23,NNW,345,0.0,0.0,28,0.00,,,0.00,,2013-04-22 23:11:00,
2013-04-22 16:21:00,66.0,32.0,30.23,North,0,0.0,0.0,28,0.00,,,0.00,,2013-04-22 23:21:00,
2013-04-22 16:32:00,66.0,30.0,30.23,NNW,328,0.0,0.0,26,0.00,,,0.00,,2013-04-22 23:32:00,
2013-04-22 16:42:00,66.0,30.0,30.23,NNW,328,0.0,0.0,26,0.00,,,0.00,,2013-04-22 23:42:00,
2013-04-22 16:52:00,66.0,30.0,30.23,NNW,328,0.0,0.0,26,0.00,,,0.00,,2013-04-22 23:52:00,
2013-04-22 17:01:00,66.0,30.0,30.23,NNW,328,0.0,0.0,26,0.00,,,0.00,,2013-04-23 00:01:00,
2013-04-22 17:22:00,65.0,31.0,30.21,North,358,0.0,0.0,28,0.00,,,0.00,,2013-04-23 00:22:00,
2013-04-22 17:32:00,65.0,31.0,30.21,North,355,0.0,0.0,28,0.00,,,0.00,,2013-04-23 00:32:00,
2013-04-22 17:42:00,65.0,31.0,30.21,North,355,0.0,0.0,28,0.00,,,0.00,,2013-04-23 00:42:00,
2013-04-22 17:52:00,65.0,30.0,30.22,NNW,330,0.0,0.0,27,0.00,,,0.00,,2013-04-23 00:52:00,
2013-04-22 18:01:00,65.0,31.0,30.22,NNE,31,0.0,0.0,28,0.00,,,0.00,,2013-04-23 01:01:00,
2013-04-22 18:11:00,65.0,31.0,30.22,NNE,31,0.0,0.0,28,0.00,,,0.00,,2013-04-23 01:11:00,
2013-04-22 18:21:00,64.0,31.0,30.23,NNE,32,0.0,0.0,29,0.00,,,0.00,,2013-04-23 01:21:00,
2013-04-22 18:31:00,64.0,30.0,30.23,North,352,0.0,0.0,28,0.00,,,0.00,,2013-04-23 01:31:00,
2013-04-22 18:42:00,64.0,30.0,30.23,North,352,0.0,0.0,28,0.00,,,0.00,,2013-04-23 01:42:00,
2013-04-22 18:52:00,64.0,29.0,30.23,North,353,0.0,0.0,27,0.00,,,0.00,,2013-04-23 01:52:00,
2013-04-22 19:01:00,64.0,29.0,30.23,North,353,0.0,0.0,27,0.00,,,0.00,,2013-04-23 02:01:00,
2013-04-22 19:12:00,64.0,29.0,30.23,North,353,0.0,0.0,27,0.00,,,0.00,,2013-04-23 02:12:00,
2013-04-22 19:21:00,63.0,29.0,30.23,North,11,0.0,0.0,28,0.00,,,0.00,,2013-04-23 02:21:00,
2013-04-22 19:32:00,62.0,29.0,30.23,North,6,0.0,0.0,29,0.00,,,0.00,,2013-04-23 02:32:00,
2013-04-22 19:42:00,62.0,29.0,30.23,North,6,0.0,0.0,29,0.00,,,0.00,,2013-04-23 02:42:00,
2013-04-22 19:52:00,62.0,30.0,30.23,North,358,0.0,0.0,30,0.00,,,0.00,,2013-04-23 02:52:00,
2013-04-22 20:01:00,61.0,29.0,30.23,North,4,0.0,0.0,29,0.00,,,0.00,,2013-04-23 03:01:00,
2013-04-22 20:11:00,61.0,29.0,30.23,North,4,0.0,0.0,29,0.00,,,0.00,,2013-04-23 03:11:00,
2013-04-22 20:21:00,60.0,29.0,30.24,NE,39,0.0,0.0,31,0.00,,,0.00,,2013-04-23 03:21:00,
2013-04-22 20:33:00,60.0,29.0,30.24,NE,39,0.0,0.0,31,0.00,,,0.00,,2013-04-23 03:33:00,
2013-04-22 20:43:00,60.0,29.0,30.24,NE,39,0.0,0.0,31,0.00,,,0.00,,2013-04-23 03:43:00,
2013-04-22 20:52:00,58.0,30.0,30.26,NE,43,0.0,0.0,34,0.00,,,0.00,,2013-04-23 03:52:00,
2013-04-22 21:03:00,58.0,30.0,30.26,NE,56,0.0,0.0,34,0.00,,,0.00,,2013-04-23 04:03:00,
2013-04-22 21:12:00,58.0,30.0,30.26,NE,56,0.0,0.0,34,0.00,,,0.00,,2013-04-23 04:12:00,
2013-04-22 21:22:00,58.0,28.0,30.26,ENE,57,0.0,0.0,31,0.00,,,0.00,,2013-04-23 04:22:00,
2013-04-22 21:32:00,58.0,28.0,30.26,ENE,57,0.0,0.0,31,0.00,,,0.00,,2013-04-23 04:32:00,
2013-04-22 21:43:00,58.0,28.0,30.26,ENE,57,0.0,0.0,31,0.00,,,0.00,,2013-04-23 04:43:00,
2013-04-22 21:53:00,56.0,27.0,30.27,East,90,0.0,0.0,32,0.00,,,0.00,,2013-04-23 04:53:00,
2013-04-22 22:02:00,56.0,28.0,30.27,East,86,0.0,0.0,34,0.00,,,0.00,,2013-04-23 05:02:00,
2013-04-22 22:12:00,56.0,28.0,30.27,East,86,0.0,0.0,34,0.00,,,0.00,,2013-04-23 05:12:00,
2013-04-22 22:22:00,55.0,27.0,30.28,ESE,107,0.0,0.0,34,0.00,,,0.00,,2013-04-23 05:22:00,
2013-04-22 22:32:00,54.0,26.0,30.28,East,101,0.0,0.0,34,0.00,,,0.00,,2013-04-23 05:32:00,
2013-04-22 22:42:00,54.0,26.0,30.28,East,101,0.0,0.0,34,0.00,,,0.00,,2013-04-23 05:42:00,
2013-04-22 22:52:00,54.0,26.0,30.28,SE,124,0.0,0.0,34,0.00,,,0.00,,2013-04-23 05:52:00,
2013-04-22 23:01:00,54.0,26.0,30.28,SE,124,0.0,0.0,34,0.00,,,0.00,,2013-04-23 06:01:00,
2013-04-22 23:12:00,54.0,26.0,30.28,SE,124,0.0,0.0,34,0.00,,,0.00,,2013-04-23 06:12:00,
2013-04-22 23:21:00,53.0,28.0,30.28,East,91,0.0,0.0,38,0.00,,,0.00,,2013-04-23 06:21:00,
2013-04-22 23:33:00,52.0,28.0,30.28,NE,53,0.0,0.0,39,0.00,,,0.00,,2013-04-23 06:33:00,
2013-04-22 23:42:00,52.0,28.0,30.28,NE,53,0.0,0.0,39,0.00,,,0.00,,2013-04-23 06:42:00,
2013-04-22 23:52:00,51.0,28.0,30.27,ENE,72,0.0,0.0,41,0.00,,,0.00,,2013-04-23 06:52:00,